createdAt,value
2023-04-28T00:00:02.749Z,62
2023-04-28T00:20:02.469Z,62
2023-04-28T00:40:03.042Z,63
2023-04-28T01:00:02.677Z,63
2023-04-28T01:20:02.550Z,63
2023-04-28T01:40:02.950Z,64
2023-04-28T02:00:02.514Z,64
2023-04-28T02:20:03.094Z,64
2023-04-28T02:40:02.625Z,65
2023-04-28T03:00:03.158Z,65
2023-04-28T03:20:02.842Z,65
2023-04-28T03:40:04.301Z,65
2023-04-28T04:00:02.629Z,66
2023-04-28T04:20:03.256Z,66
2023-04-28T04:40:02.661Z,66
2023-04-28T05:00:03.054Z,65
2023-04-28T05:20:03.127Z,65
2023-04-28T05:40:02.741Z,63
2023-04-28T06:00:03.286Z,62
2023-04-28T06:20:02.947Z,59
2023-04-28T06:40:02.575Z,55
2023-04-28T07:00:03.166Z,51
2023-04-28T07:20:02.814Z,45
2023-04-28T07:40:03.460Z,42
2023-04-28T08:00:03.131Z,40
2023-04-28T08:20:02.759Z,37
2023-04-28T08:40:03.239Z,36
2023-04-28T09:00:02.745Z,34
2023-04-28T09:20:02.678Z,34
2023-04-28T09:40:03.412Z,33
2023-04-28T10:00:03.064Z,33
2023-04-28T10:20:02.698Z,34
2023-04-28T10:40:03.113Z,34
2023-04-28T11:00:02.586Z,33
2023-04-28T11:20:02.383Z,32
2023-04-28T11:40:02.826Z,33
2023-04-28T12:00:03.302Z,33
2023-04-28T12:20:02.843Z,34
2023-04-28T12:40:03.664Z,35
2023-04-28T13:00:03.067Z,36
2023-04-28T13:20:02.477Z,36
2023-04-28T13:40:02.918Z,37
2023-04-28T14:00:02.623Z,38
2023-04-28T14:20:02.833Z,39
2023-04-28T14:40:03.559Z,40
2023-04-28T15:00:03.148Z,41
2023-04-28T15:20:03.105Z,42
2023-04-28T15:40:02.658Z,43
2023-04-28T16:00:03.349Z,44
2023-04-28T16:20:03.220Z,46
2023-04-28T16:40:02.792Z,48
2023-04-28T17:00:03.540Z,50
2023-04-28T17:20:02.682Z,52
2023-04-28T17:40:03.067Z,54
2023-04-28T18:00:02.764Z,56
2023-04-28T18:20:02.674Z,57
2023-04-28T18:40:03.213Z,60
2023-04-28T19:00:03.988Z,64
2023-04-28T19:20:02.941Z,66
2023-04-28T19:40:02.511Z,68
2023-04-28T20:00:03.998Z,69
2023-04-28T20:20:02.789Z,69
2023-04-28T20:40:03.244Z,69
2023-04-28T21:00:02.529Z,69
2023-04-28T21:20:03.164Z,69
2023-04-28T21:40:02.630Z,69
2023-04-28T22:00:03.048Z,69
2023-04-28T22:20:02.498Z,69
2023-04-28T22:40:02.929Z,69
2023-04-28T23:00:02.353Z,69
2023-04-28T23:20:02.848Z,70
2023-04-28T23:40:02.847Z,70
